Time;durP1;ratioP1;P1;durP2;ratioP2;P2;SDS_P1;SDS_P2;PMS_P1;PMS_P2;Temp;Humidity;BMP_temperature;BMP_pressure;BME280_temperature;BME280_humidity;BME280_pressure;Samples;Min_cycle;Max_cycle;Signal;HPM_P1;HPM_P2
2021/08/08 00:00:22;;;;;;;3.53;2.70;;;;;;;15.81;80.53;100277.06;3575292;40;20250;-82
2021/08/08 00:02:47;;;;;;;4.27;2.30;;;;;;;16.20;80.11;100279.16;3575541;40;20239;-80
2021/08/08 00:05:13;;;;;;;2.80;2.33;;;;;;;16.13;80.16;100271.50;3575270;40;20222;-82
2021/08/08 00:07:38;;;;;;;6.23;2.23;;;;;;;16.10;80.54;100284.44;3576883;40;20462;-82
2021/08/08 00:10:09;;;;;;;2.93;2.20;;;;;;;16.11;80.55;100284.44;3574873;40;20648;-81
2021/08/08 00:12:35;;;;;;;2.60;2.03;;;;;;;16.18;80.94;100280.91;3572618;40;20225;-80
2021/08/08 00:15:01;;;;;;;2.63;1.50;;;;;;;16.14;80.75;100286.13;3564058;40;20231;-80
2021/08/08 00:17:27;;;;;;;3.40;2.20;;;;;;;16.15;80.67;100288.69;3572496;40;20235;-80
2021/08/08 00:19:53;;;;;;;5.23;2.90;;;;;;;16.25;81.30;100286.88;3573307;40;20333;-81
2021/08/08 00:22:19;;;;;;;4.10;2.77;;;;;;;16.18;80.95;100283.50;3572633;40;20229;-81
2021/08/08 00:24:44;;;;;;;4.13;2.87;;;;;;;16.25;81.05;100292.03;3572741;40;20222;-81
2021/08/08 00:27:09;;;;;;;3.57;2.50;;;;;;;16.32;81.01;100296.25;3573563;40;20226;-79
2021/08/08 00:29:34;;;;;;;3.03;2.47;;;;;;;16.30;80.85;100318.69;3573098;40;20304;-81
2021/08/08 00:32:00;;;;;;;4.70;2.70;;;;;;;16.74;79.73;100337.94;3573896;40;20688;-80
2021/08/08 00:34:25;;;;;;;5.27;3.20;;;;;;;16.73;79.26;100330.19;3573651;40;20512;-80
2021/08/08 00:36:50;;;;;;;4.43;2.57;;;;;;;16.60;79.34;100324.34;3574976;40;20230;-81
2021/08/08 00:39:17;;;;;;;4.97;2.33;;;;;;;16.49;79.96;100321.03;3574323;40;20323;-81
2021/08/08 00:41:42;;;;;;;3.13;2.60;;;;;;;16.64;79.43;100309.63;3573452;40;20592;-82
2021/08/08 00:44:08;;;;;;;3.23;2.70;;;;;;;16.68;79.11;100312.16;3573916;40;20342;-82
2021/08/08 00:46:33;;;;;;;5.10;3.07;;;;;;;16.50;79.65;100303.78;3576209;40;20237;-82
2021/08/08 00:48:59;;;;;;;3.30;2.77;;;;;;;16.64;79.58;100312.22;3575853;40;20602;-82
2021/08/08 00:51:28;;;;;;;5.33;2.83;;;;;;;16.65;78.71;100304.44;3575406;40;20231;-81
2021/08/08 00:53:54;;;;;;;7.20;2.87;;;;;;;16.47;79.26;100312.44;3573260;40;20519;-81
2021/08/08 00:56:20;;;;;;;3.40;2.63;;;;;;;16.31;79.98;100320.38;3573404;40;20252;-81
2021/08/08 00:58:45;;;;;;;7.20;3.00;;;;;;;16.33;79.73;100336.72;3574086;40;20227;-81
2021/08/08 01:01:15;;;;;;;2.53;2.30;;;;;;;16.19;79.89;100326.53;3575947;40;20234;-81
2021/08/08 01:03:42;;;;;;;4.87;2.87;;;;;;;16.11;79.91;100336.09;3575176;40;20234;-81
2021/08/08 01:06:25;;;;;;;2.30;1.97;;;;;;;16.14;80.50;100332.63;3574720;40;20671;-80
2021/08/08 01:09:01;;;;;;;4.60;3.00;;;;;;;16.50;79.65;100333.09;3574605;40;20234;-81
2021/08/08 01:11:27;;;;;;;4.67;2.80;;;;;;;16.57;78.87;100339.03;3574811;40;20230;-80
2021/08/08 01:13:53;;;;;;;4.53;2.90;;;;;;;16.66;78.77;100332.00;3575204;40;20238;-81
2021/08/08 01:16:21;;;;;;;3.63;3.00;;;;;;;16.94;78.13;100335.91;3574722;40;20230;-81
2021/08/08 01:18:48;;;;;;;4.10;3.00;;;;;;;16.95;77.07;100329.03;3574859;40;20807;-80
2021/08/08 01:21:14;;;;;;;6.10;3.00;;;;;;;16.73;77.63;100327.59;3575954;40;20259;-81
2021/08/08 01:23:41;;;;;;;4.47;2.30;;;;;;;16.50;78.42;100333.09;3576542;40;20223;-81
2021/08/08 01:26:06;;;;;;;3.60;2.03;;;;;;;16.39;79.25;100344.41;3576282;40;20645;-83
2021/08/08 01:28:32;;;;;;;4.00;3.00;;;;;;;16.33;79.13;100344.47;3574210;40;20231;-81
2021/08/08 01:30:57;;;;;;;2.47;2.27;;;;;;;16.29;79.81;100343.66;3575018;40;20623;-81
2021/08/08 01:33:23;;;;;;;4.50;2.53;;;;;;;16.30;79.16;100341.94;3575416;40;20242;-81
2021/08/08 01:35:49;;;;;;;3.47;2.40;;;;;;;16.19;79.46;100352.38;3577033;40;20595;-81
2021/08/08 01:38:14;;;;;;;4.77;2.40;;;;;;;16.12;80.09;100345.56;3574897;40;20255;-81
2021/08/08 01:40:48;;;;;;;4.30;2.93;;;;;;;16.09;79.60;100347.31;3575133;40;20250;-82
2021/08/08 01:43:19;;;;;;;3.73;2.57;;;;;;;16.21;79.23;100347.19;3575429;40;20667;-81
2021/08/08 01:45:47;;;;;;;3.30;3.00;;;;;;;16.33;79.00;100347.03;3575357;40;20235;-80
2021/08/08 01:48:16;;;;;;;3.60;2.60;;;;;;;16.27;78.89;100345.41;3575237;40;20247;-80
2021/08/08 01:50:41;;;;;;;6.77;3.00;;;;;;;16.15;78.97;100344.66;3574388;40;20592;-81
2021/08/08 01:53:07;;;;;;;4.43;2.33;;;;;;;16.20;78.86;100348.06;3574451;40;20230;-80
2021/08/08 01:55:33;;;;;;;4.03;3.00;;;;;;;16.21;78.42;100345.47;3573684;40;20258;-81
2021/08/08 01:57:59;;;;;;;4.20;2.80;;;;;;;16.36;78.54;100344.44;3574077;40;20231;-80
2021/08/08 02:00:25;;;;;;;5.20;2.80;;;;;;;16.23;78.46;100356.66;3574002;40;20243;-81
2021/08/08 02:02:55;;;;;;;4.47;2.80;;;;;;;16.11;78.91;100353.34;3573179;40;20481;-81
2021/08/08 02:05:21;;;;;;;5.73;3.43;;;;;;;16.17;78.48;100350.69;3573334;40;20222;-81
2021/08/08 02:07:46;;;;;;;3.53;2.60;;;;;;;16.10;78.42;100349.03;3574185;40;20238;-80
2021/08/08 02:10:12;;;;;;;2.90;2.60;;;;;;;16.03;78.50;100344.81;3574050;40;20709;-81
2021/08/08 02:12:37;;;;;;;7.57;2.87;;;;;;;16.00;78.29;100350.00;3572474;40;20273;-81
2021/08/08 02:15:03;;;;;;;5.83;3.17;;;;;;;16.04;78.50;100351.69;3573588;40;20230;-80
2021/08/08 02:17:28;;;;;;;5.73;2.77;;;;;;;15.92;79.36;100352.69;3581309;40;20605;-80
2021/08/08 02:19:53;;;;;;;3.43;2.47;;;;;;;15.82;79.31;100352.78;3573256;40;20632;-81
2021/08/08 02:22:19;;;;;;;3.67;2.83;;;;;;;15.79;79.14;100348.50;3576017;40;20227;-82
2021/08/08 02:24:44;;;;;;;3.20;2.87;;;;;;;15.77;78.74;100345.09;3576997;40;20266;-82
2021/08/08 02:27:09;;;;;;;2.90;2.07;;;;;;;15.63;78.98;100346.06;3575819;40;20222;-81
2021/08/08 02:29:35;;;;;;;2.67;2.43;;;;;;;15.66;79.10;100352.06;3575816;40;20631;-81
2021/08/08 02:32:00;;;;;;;4.90;2.70;;;;;;;15.72;78.43;100348.56;3574012;40;20242;-80
2021/08/08 02:34:25;;;;;;;2.40;2.20;;;;;;;15.59;79.00;100337.50;3573102;40;20242;-80
2021/08/08 02:36:50;;;;;;;2.60;2.17;;;;;;;15.57;79.57;100339.22;3573288;40;20695;-81
2021/08/08 02:39:16;;;;;;;5.77;3.37;;;;;;;15.39;79.28;100349.75;3573553;40;20238;-80
2021/08/08 02:41:41;;;;;;;4.60;2.80;;;;;;;15.58;79.15;100342.69;3573138;40;20214;-81
2021/08/08 02:44:06;;;;;;;4.67;2.97;;;;;;;15.44;79.07;100354.84;3576309;40;20222;-82
2021/08/08 02:46:32;;;;;;;3.23;2.37;;;;;;;15.35;79.50;100360.94;3576937;40;20277;-81
2021/08/08 02:48:57;;;;;;;2.30;2.10;;;;;;;15.17;80.07;100353.31;3577020;40;20227;-82
2021/08/08 02:51:23;;;;;;;5.73;2.93;;;;;;;15.16;79.58;100358.47;3577740;40;20226;-81
2021/08/08 02:53:48;;;;;;;5.13;2.70;;;;;;;15.17;79.81;100352.44;3577267;40;20215;-82
2021/08/08 02:56:13;;;;;;;2.53;2.33;;;;;;;15.15;80.30;100351.59;3576798;40;20236;-82
2021/08/08 02:58:38;;;;;;;3.70;3.30;;;;;;;15.16;79.92;100356.75;3576843;40;20229;-82
2021/08/08 03:01:06;;;;;;;2.87;2.40;;;;;;;15.13;79.74;100359.34;3575167;40;20521;-81
2021/08/08 03:03:31;;;;;;;3.50;2.60;;;;;;;15.05;80.07;100366.28;3574622;40;20604;-80
2021/08/08 03:05:58;;;;;;;2.17;1.97;;;;;;;15.00;80.19;100370.59;3573485;40;20242;-80
2021/08/08 03:08:23;;;;;;;4.67;2.90;;;;;;;14.86;80.84;100368.97;3573877;40;20521;-80
2021/08/08 03:10:48;;;;;;;2.67;2.43;;;;;;;14.78;80.38;100376.75;3574317;40;20263;-81
2021/08/08 03:13:14;;;;;;;3.03;2.40;;;;;;;14.70;80.94;100375.94;3573786;40;20215;-80
2021/08/08 03:15:39;;;;;;;2.60;2.10;;;;;;;14.63;81.05;100375.94;3573477;40;20230;-80
2021/08/08 03:18:05;;;;;;;2.23;1.93;;;;;;;14.58;80.60;100376.00;3572885;40;20551;-81
2021/08/08 03:20:30;;;;;;;2.33;2.13;;;;;;;14.53;80.68;100376.88;3574915;40;20234;-81
2021/08/08 03:22:56;;;;;;;3.60;1.80;;;;;;;14.56;80.43;100372.56;3574463;40;20644;-81
2021/08/08 03:25:21;;;;;;;5.40;2.53;;;;;;;14.74;80.16;100374.19;3574475;40;20227;-82
2021/08/08 03:27:50;;;;;;;3.97;2.93;;;;;;;15.30;79.81;100373.00;3576157;40;20221;-82
2021/08/08 03:30:15;;;;;;;3.80;2.50;;;;;;;14.90;79.72;100380.97;3575451;40;20262;-81
2021/08/08 03:32:41;;;;;;;2.90;2.50;;;;;;;14.85;79.70;100382.72;3577036;40;20296;-81
2021/08/08 03:35:07;;;;;;;3.17;2.63;;;;;;;14.91;79.99;100382.72;3566877;40;20241;-81
2021/08/08 03:37:32;;;;;;;4.37;2.63;;;;;;;14.94;80.12;100380.97;3564908;40;20227;-81
2021/08/08 03:39:57;;;;;;;3.97;3.03;;;;;;;15.11;79.71;100380.88;3582460;40;21007;-81
2021/08/08 03:42:22;;;;;;;3.43;2.80;;;;;;;15.17;79.03;100384.25;3574380;40;20231;-81
2021/08/08 03:44:50;;;;;;;4.03;2.70;;;;;;;15.03;79.65;100387.78;3569118;40;20239;-81
2021/08/08 03:47:17;;;;;;;4.53;3.30;;;;;;;15.38;79.05;100393.63;3574145;40;20234;-82
2021/08/08 03:49:42;;;;;;;3.67;2.87;;;;;;;15.66;77.10;100395.94;3574458;40;20250;-80
2021/08/08 03:52:09;;;;;;;3.90;2.60;;;;;;;15.23;78.24;100401.41;3574647;40;20324;-80
2021/08/08 03:54:34;;;;;;;4.13;3.13;;;;;;;15.33;78.09;100398.75;3575473;40;20258;-81
2021/08/08 03:56:59;;;;;;;4.10;3.00;;;;;;;15.29;78.22;100398.81;3575182;40;20230;-80
2021/08/08 03:59:24;;;;;;;4.50;3.03;;;;;;;15.50;78.06;100403.81;3574303;40;20242;-82
2021/08/08 04:01:50;;;;;;;4.23;2.40;;;;;;;15.30;78.11;100403.97;3574469;40;20946;-82
2021/08/08 04:04:15;;;;;;;5.50;2.77;;;;;;;15.34;78.26;100404.81;3575253;40;20309;-81
2021/08/08 04:06:40;;;;;;;5.97;2.50;;;;;;;15.46;78.24;100412.44;3583328;40;20230;-81
2021/08/08 04:09:05;;;;;;;4.70;2.77;;;;;;;15.47;77.17;100412.44;3574662;40;20245;-81
2021/08/08 04:11:31;;;;;;;2.90;2.60;;;;;;;15.53;78.12;100411.56;3574465;40;20230;-82
2021/08/08 04:13:56;;;;;;;5.03;2.60;;;;;;;15.45;77.79;100421.94;3573683;40;20238;-81
2021/08/08 04:16:21;;;;;;;6.83;2.33;;;;;;;15.27;78.92;100421.16;3574135;40;20222;-82
2021/08/08 04:18:46;;;;;;;4.00;2.30;;;;;;;15.34;78.83;100421.13;3574110;40;20234;-80
2021/08/08 04:21:12;;;;;;;2.57;2.20;;;;;;;15.30;79.28;100423.72;3573615;40;20237;-82
2021/08/08 04:23:37;;;;;;;5.63;2.40;;;;;;;15.42;78.88;100421.94;3574606;40;20226;-82
2021/08/08 04:26:02;;;;;;;5.17;2.20;;;;;;;15.51;78.66;100427.03;3573355;40;20230;-81
2021/08/08 04:28:28;;;;;;;3.40;2.40;;;;;;;15.60;78.21;100432.13;3574341;40;20222;-82
2021/08/08 04:30:53;;;;;;;3.50;2.20;;;;;;;15.77;78.00;100426.84;3574253;40;20242;-81
2021/08/08 04:33:18;;;;;;;2.90;2.20;;;;;;;15.55;78.79;100431.31;3574620;40;20271;-81
2021/08/08 04:35:43;;;;;;;5.37;2.57;;;;;;;15.81;78.37;100428.53;3575627;40;20332;-81
2021/08/08 04:38:09;;;;;;;3.97;2.60;;;;;;;15.94;78.20;100430.16;3575772;40;20223;-83
2021/08/08 04:40:34;;;;;;;4.50;2.60;;;;;;;15.94;77.31;100430.16;3575063;40;20237;-81
2021/08/08 04:43:00;;;;;;;4.23;2.10;;;;;;;15.84;77.67;100431.09;3574444;40;20565;-81
2021/08/08 04:45:26;;;;;;;4.33;2.50;;;;;;;16.26;76.92;100425.53;3574565;40;20260;-81
2021/08/08 04:47:52;;;;;;;2.90;2.00;;;;;;;16.06;77.49;100425.72;3574433;40;20235;-80
2021/08/08 04:50:18;;;;;;;5.57;2.33;;;;;;;16.24;76.31;100433.28;3575510;40;20590;-81
2021/08/08 04:52:45;;;;;;;2.23;2.03;;;;;;;16.10;77.19;100429.97;3575312;40;20231;-81
2021/08/08 04:55:11;;;;;;;5.97;2.53;;;;;;;16.32;76.75;100430.63;3575628;40;20223;-81
2021/08/08 04:57:36;;;;;;;2.60;1.93;;;;;;;16.19;76.41;100432.47;3574669;40;20711;-81
2021/08/08 05:00:02;;;;;;;2.63;2.10;;;;;;;16.25;76.98;100432.41;3575036;40;20621;-80
2021/08/08 05:02:27;;;;;;;3.37;2.10;;;;;;;16.29;76.37;100431.50;3575195;40;20242;-81
2021/08/08 05:04:52;;;;;;;2.93;2.23;;;;;;;16.56;75.59;100423.50;3575125;40;20222;-81
2021/08/08 05:07:18;;;;;;;3.97;2.00;;;;;;;16.27;76.66;100428.09;3574613;40;20695;-83
2021/08/08 05:09:43;;;;;;;3.33;2.00;;;;;;;16.40;76.06;100436.59;3575488;40;20239;-82
2021/08/08 05:12:10;;;;;;;3.03;1.90;;;;;;;16.41;75.87;100435.72;3576383;40;20225;-82
2021/08/08 05:14:37;;;;;;;3.80;2.20;;;;;;;16.21;77.19;100438.47;3573758;40;20297;-82
2021/08/08 05:17:02;;;;;;;4.27;2.07;;;;;;;16.40;76.39;100431.44;3575061;40;20331;-81
2021/08/08 05:19:28;;;;;;;2.23;2.00;;;;;;;16.52;75.81;100434.72;3573691;40;20542;-81
2021/08/08 05:21:53;;;;;;;2.57;1.77;;;;;;;16.60;75.81;100440.69;3582172;40;20534;-82
2021/08/08 05:24:20;;;;;;;3.40;1.90;;;;;;;16.83;75.57;100436.09;3582064;40;20246;-81
2021/08/08 05:26:46;;;;;;;2.70;1.80;;;;;;;16.92;74.75;100441.16;3571122;40;20549;-81
2021/08/08 05:29:11;;;;;;;3.57;1.90;;;;;;;16.95;75.03;100429.91;3562598;40;20239;-81
2021/08/08 05:31:38;;;;;;;3.50;1.80;;;;;;;16.78;74.84;100434.44;3565512;40;20265;-81
2021/08/08 05:34:04;;;;;;;4.33;1.80;;;;;;;16.91;74.83;100446.34;3570916;40;20226;-82
2021/08/08 05:36:29;;;;;;;3.43;2.10;;;;;;;16.90;74.25;100447.22;3582213;40;20247;-81
2021/08/08 05:38:54;;;;;;;3.27;1.90;;;;;;;17.04;73.92;100442.72;3576227;40;20359;-82
2021/08/08 05:41:19;;;;;;;2.67;2.00;;;;;;;17.05;74.07;100450.47;3575192;40;20605;-80
2021/08/08 05:43:45;;;;;;;3.50;1.90;;;;;;;17.21;74.10;100454.53;3573408;40;20235;-81
2021/08/08 05:46:10;;;;;;;3.30;1.87;;;;;;;17.14;74.23;100465.00;3573567;40;20235;-81
2021/08/08 05:48:35;;;;;;;2.33;1.80;;;;;;;17.07;74.07;100463.34;3574019;40;20234;-81
2021/08/08 05:51:00;;;;;;;4.00;2.70;;;;;;;16.95;75.13;100461.78;3573738;40;20254;-81
2021/08/08 05:53:26;;;;;;;4.23;2.60;;;;;;;16.91;75.32;100467.88;3574761;40;20238;-81
2021/08/08 05:55:51;;;;;;;4.10;2.40;;;;;;;16.96;75.50;100473.00;3576160;40;20231;-81
2021/08/08 05:58:16;;;;;;;3.67;2.70;;;;;;;16.74;75.91;100464.66;3578442;40;20229;-81
2021/08/08 06:00:42;;;;;;;2.83;2.33;;;;;;;16.67;77.01;100462.16;3576728;40;20254;-82
2021/08/08 06:03:11;;;;;;;4.23;2.80;;;;;;;16.64;77.03;100469.94;3577392;40;20230;-83
2021/08/08 06:05:37;;;;;;;5.07;3.00;;;;;;;16.66;77.22;100470.75;3576386;40;20255;-82
2021/08/08 06:08:03;;;;;;;4.67;2.97;;;;;;;16.72;77.53;100468.97;3575807;40;20234;-81
2021/08/08 06:10:28;;;;;;;3.40;3.10;;;;;;;16.63;77.30;100469.06;3574897;40;20529;-80
2021/08/08 06:12:53;;;;;;;4.40;2.63;;;;;;;16.68;77.85;100474.22;3573498;40;20229;-81
2021/08/08 06:15:19;;;;;;;5.77;2.80;;;;;;;16.71;77.19;100481.94;3575223;40;20225;-82
2021/08/08 06:17:44;;;;;;;2.83;2.47;;;;;;;16.68;77.50;100484.53;3576605;40;20487;-82
2021/08/08 06:20:09;;;;;;;4.93;2.60;;;;;;;16.75;77.54;100479.28;3575732;40;20242;-80
2021/08/08 06:22:35;;;;;;;2.87;2.67;;;;;;;16.73;77.33;100487.94;3575818;40;20259;-81
2021/08/08 06:25:00;;;;;;;3.50;2.70;;;;;;;16.66;77.17;100492.31;3576814;40;20241;-81
2021/08/08 06:27:26;;;;;;;5.17;2.50;;;;;;;16.64;78.05;100499.25;3577131;40;20851;-82
2021/08/08 06:29:51;;;;;;;4.07;2.60;;;;;;;16.61;78.33;100501.84;3576633;40;20245;-81
2021/08/08 06:32:16;;;;;;;4.20;2.83;;;;;;;16.60;78.48;100501.88;3576958;40;20257;-81
2021/08/08 06:34:43;;;;;;;4.27;2.63;;;;;;;16.49;78.12;100501.13;3577263;40;20246;-81
2021/08/08 06:37:09;;;;;;;3.57;2.60;;;;;;;16.53;78.21;100501.06;3578238;40;20581;-81
2021/08/08 06:39:34;;;;;;;5.00;2.60;;;;;;;16.52;78.44;100509.69;3576635;40;20286;-81
2021/08/08 06:41:59;;;;;;;6.70;2.60;;;;;;;16.57;78.41;100507.94;3576793;40;20277;-81
2021/08/08 06:44:26;;;;;;;4.43;2.70;;;;;;;16.53;78.66;100511.41;3577711;40;20620;-81
2021/08/08 06:46:51;;;;;;;2.90;2.60;;;;;;;16.55;78.35;100508.81;3576908;40;20291;-82
2021/08/08 06:49:16;;;;;;;3.23;2.40;;;;;;;16.50;78.47;100520.94;3576411;40;20250;-82
2021/08/08 06:51:42;;;;;;;5.13;2.80;;;;;;;16.54;78.94;100517.44;3577041;40;20721;-83
2021/08/08 06:54:07;;;;;;;2.83;2.50;;;;;;;16.61;79.26;100512.19;3576133;40;20271;-82
2021/08/08 06:56:32;;;;;;;4.07;2.60;;;;;;;16.56;78.61;100518.28;3575708;40;20241;-82
2021/08/08 06:58:58;;;;;;;3.60;2.70;;;;;;;16.69;78.51;100517.28;3575791;40;20239;-82
2021/08/08 07:01:23;;;;;;;5.17;2.73;;;;;;;16.71;78.31;100511.22;3575752;40;20247;-82
2021/08/08 07:03:48;;;;;;;3.40;2.40;;;;;;;16.75;77.93;100517.22;3575865;40;20225;-81
2021/08/08 07:06:13;;;;;;;5.10;2.93;;;;;;;16.67;78.28;100521.63;3576020;40;20477;-81
2021/08/08 07:08:39;;;;;;;3.53;2.50;;;;;;;16.73;78.72;100525.00;3576226;40;20226;-81
2021/08/08 07:11:04;;;;;;;6.23;3.00;;;;;;;16.83;78.35;100520.56;3575808;40;20239;-82
2021/08/08 07:13:29;;;;;;;3.40;2.80;;;;;;;16.84;77.84;100517.97;3577452;40;20300;-83
2021/08/08 07:15:54;;;;;;;4.20;3.07;;;;;;;16.81;78.12;100522.34;3577254;40;20557;-83
2021/08/08 07:18:20;;;;;;;3.20;2.90;;;;;;;16.82;77.85;100535.25;3576251;40;20230;-81
2021/08/08 07:20:45;;;;;;;4.30;3.00;;;;;;;16.89;77.86;100531.72;3575779;40;20245;-82
2021/08/08 07:23:10;;;;;;;3.30;3.00;;;;;;;16.94;77.40;100537.69;3576524;40;20222;-83
2021/08/08 07:25:35;;;;;;;5.77;3.00;;;;;;;16.85;78.05;100531.78;3576123;40;20226;-81
2021/08/08 07:28:01;;;;;;;3.47;3.10;;;;;;;16.86;78.33;100529.16;3576701;40;20218;-82
2021/08/08 07:30:26;;;;;;;4.63;3.13;;;;;;;16.91;77.76;100535.13;3575334;40;20514;-81
2021/08/08 07:32:51;;;;;;;5.10;3.50;;;;;;;16.84;78.47;100533.50;3575870;40;20233;-81
2021/08/08 07:35:17;;;;;;;4.43;3.23;;;;;;;17.04;78.57;100535.88;3574744;40;20293;-82
2021/08/08 07:37:42;;;;;;;5.17;3.67;;;;;;;16.98;78.18;100541.97;3576449;40;20290;-81
2021/08/08 07:40:08;;;;;;;4.73;3.20;;;;;;;16.95;78.10;100547.16;3575829;40;20261;-82
2021/08/08 07:42:33;;;;;;;4.23;3.60;;;;;;;16.93;78.56;100548.03;3577207;40;20641;-82
2021/08/08 07:44:58;;;;;;;5.10;4.00;;;;;;;16.87;79.25;100541.22;3576557;40;20227;-82
2021/08/08 07:47:23;;;;;;;5.80;3.90;;;;;;;16.84;78.99;100548.16;3577028;40;20230;-84
2021/08/08 07:49:49;;;;;;;5.57;4.00;;;;;;;16.76;79.32;100557.75;3575916;40;20520;-83
2021/08/08 07:52:14;;;;;;;4.60;4.00;;;;;;;16.73;79.75;100556.03;3577211;40;20233;-81
2021/08/08 07:54:40;;;;;;;5.77;3.90;;;;;;;16.86;79.88;100559.34;3577742;40;20470;-83
2021/08/08 07:57:05;;;;;;;4.13;3.77;;;;;;;16.85;79.06;100566.25;3577096;40;20226;-82
2021/08/08 07:59:30;;;;;;;5.20;4.00;;;;;;;16.93;79.06;100563.56;3574936;40;20246;-82
2021/08/08 08:01:56;;;;;;;4.60;4.20;;;;;;;16.84;79.55;100571.44;3575765;40;20238;-82
2021/08/08 08:04:23;;;;;;;5.33;4.10;;;;;;;16.92;79.13;100572.22;3574758;40;20245;-82
2021/08/08 08:06:49;;;;;;;5.73;4.80;;;;;;;17.06;78.68;100578.97;3575002;40;20246;-81
2021/08/08 08:09:14;;;;;;;5.90;4.77;;;;;;;17.02;78.50;100579.00;3575315;40;20595;-82
2021/08/08 08:11:41;;;;;;;5.70;5.20;;;;;;;17.03;78.74;100586.75;3577310;40;20234;-81
2021/08/08 08:14:06;;;;;;;7.87;5.60;;;;;;;17.08;78.84;100590.13;3577228;40;20241;-81
2021/08/08 08:16:31;;;;;;;6.17;5.57;;;;;;;17.07;78.29;100592.72;3576514;40;20223;-81
2021/08/08 08:18:57;;;;;;;6.37;5.77;;;;;;;17.00;79.06;100591.94;3576530;40;20226;-81
2021/08/08 08:21:22;;;;;;;7.33;5.90;;;;;;;17.20;78.51;100605.53;3576800;40;20241;-80
2021/08/08 08:23:47;;;;;;;7.77;5.63;;;;;;;17.19;77.99;100596.06;3577066;40;20225;-80
2021/08/08 08:26:12;;;;;;;6.77;5.20;;;;;;;17.24;78.29;100599.47;3575718;40;20234;-81
2021/08/08 08:28:38;;;;;;;6.33;5.70;;;;;;;17.41;78.16;100607.06;3575737;40;20637;-81
2021/08/08 08:31:03;;;;;;;7.43;5.40;;;;;;;17.51;77.36;100621.59;3575867;40;20258;-81
2021/08/08 08:33:28;;;;;;;6.43;5.83;;;;;;;17.56;77.13;100612.91;3574165;40;20253;-80
2021/08/08 08:35:53;;;;;;;6.20;5.60;;;;;;;17.60;77.78;100611.13;3575070;40;20238;-82
2021/08/08 08:38:19;;;;;;;7.83;5.70;;;;;;;17.67;76.19;100615.34;3576141;40;20249;-81
2021/08/08 08:40:44;;;;;;;7.83;6.17;;;;;;;17.67;76.43;100618.78;3576449;40;20251;-81
2021/08/08 08:43:11;;;;;;;7.17;6.00;;;;;;;17.69;75.96;100618.78;3576200;40;20225;-82
2021/08/08 08:45:40;;;;;;;9.57;6.20;;;;;;;17.71;75.57;100625.66;3576577;40;20231;-81
2021/08/08 08:48:07;;;;;;;8.53;6.20;;;;;;;17.70;75.62;100631.72;3583528;40;20649;-81
2021/08/08 08:50:34;;;;;;;11.27;6.57;;;;;;;17.75;75.35;100647.19;3575853;40;20227;-81
2021/08/08 08:53:00;;;;;;;8.73;6.57;;;;;;;17.80;75.87;100645.38;3576707;40;20284;-81
2021/08/08 08:55:26;;;;;;;9.23;6.23;;;;;;;17.85;75.43;100649.63;3575044;40;20225;-81
2021/08/08 08:57:51;;;;;;;9.23;6.23;;;;;;;17.94;74.58;100653.84;3575683;40;20222;-80
2021/08/08 09:00:17;;;;;;;11.73;6.20;;;;;;;17.93;74.59;100660.78;3575061;40;20231;-80
2021/08/08 09:02:43;;;;;;;8.47;5.93;;;;;;;17.86;74.87;100666.91;3575055;40;20621;-80
2021/08/08 09:05:09;;;;;;;8.53;6.10;;;;;;;17.91;75.09;100665.09;3574092;40;20640;-80
2021/08/08 09:07:34;;;;;;;9.43;6.30;;;;;;;17.98;74.77;100668.47;3576535;40;20238;-81
2021/08/08 09:10:00;;;;;;;9.40;6.73;;;;;;;18.07;74.58;100670.94;3575491;40;20858;-81
2021/08/08 09:12:28;;;;;;;7.83;6.90;;;;;;;18.07;74.36;100677.00;3576147;40;20218;-81
2021/08/08 09:15:01;;;;;;;9.47;6.50;;;;;;;18.03;74.68;100671.84;3576041;40;20225;-82
2021/08/08 09:17:27;;;;;;;11.13;6.50;;;;;;;18.09;74.04;100676.94;3575918;40;20280;-81
2021/08/08 09:20:07;;;;;;;10.20;6.97;;;;;;;18.11;74.03;100690.75;3575686;40;20250;-82
2021/08/08 09:22:32;;;;;;;10.93;6.73;;;;;;;17.96;73.57;100678.00;3575480;40;20310;-81
2021/08/08 09:24:58;;;;;;;11.43;7.30;;;;;;;18.01;74.37;100684.00;3577800;40;20230;-83
2021/08/08 09:27:38;;;;;;;15.17;7.00;;;;;;;18.17;73.98;100686.34;3575026;40;20231;-81
2021/08/08 09:30:15;;;;;;;10.73;6.60;;;;;;;18.15;73.07;100700.22;3550322;40;1013974;-80
2021/08/08 09:32:40;;;;;;;13.33;7.83;;;;;;;18.13;73.05;100699.34;3576334;40;20481;-79
2021/08/08 09:35:08;;;;;;;11.27;7.10;;;;;;;18.08;73.33;100703.75;3575088;40;20301;-80
2021/08/08 09:37:34;;;;;;;12.93;7.30;;;;;;;18.09;73.28;100708.91;3576646;40;20524;-84
2021/08/08 09:40:00;;;;;;;9.87;6.17;;;;;;;18.16;72.65;100704.50;3577041;40;20257;-80
2021/08/08 09:42:27;;;;;;;12.80;6.00;;;;;;;18.16;71.40;100710.56;3577711;40;20229;-81
2021/08/08 09:44:58;;;;;;;8.60;5.90;;;;;;;18.25;72.21;100709.56;3577284;40;20259;-80
2021/08/08 09:47:35;;;;;;;11.80;6.60;;;;;;;18.44;71.85;100717.09;3576909;40;20270;-81
2021/08/08 09:50:04;;;;;;;8.67;6.27;;;;;;;18.51;71.52;100723.91;3576444;40;20250;-81
2021/08/08 09:52:29;;;;;;;9.90;6.47;;;;;;;18.47;71.38;100740.38;3577679;40;20213;-82
2021/08/08 09:54:55;;;;;;;12.53;5.53;;;;;;;18.39;71.21;100729.28;3574480;40;20223;-81
2021/08/08 09:57:20;;;;;;;12.17;6.13;;;;;;;18.50;71.44;100731.69;3584744;40;20281;-81
2021/08/08 09:59:47;;;;;;;9.30;5.57;;;;;;;18.52;70.58;100737.75;3584465;40;20254;-81
2021/08/08 10:02:18;;;;;;;10.60;5.60;;;;;;;18.52;70.23;100737.75;3575991;40;20233;-80
2021/08/08 10:04:43;;;;;;;11.17;5.47;;;;;;;18.54;69.09;100738.56;3575722;40;20674;-81
2021/08/08 10:07:09;;;;;;;12.60;5.47;;;;;;;18.54;70.12;100744.63;3575804;40;20231;-80
2021/08/08 10:09:35;;;;;;;11.47;6.10;;;;;;;18.51;70.61;100743.81;3575925;40;20262;-80
2021/08/08 10:12:15;;;;;;;9.80;5.63;;;;;;;18.58;69.91;100748.88;3575660;40;20238;-79
2021/08/08 10:14:40;;;;;;;10.60;5.73;;;;;;;18.51;71.00;100746.41;3577045;40;20596;-81
2021/08/08 10:17:09;;;;;;;9.53;5.63;;;;;;;18.59;70.63;100758.38;3575993;40;20226;-80
2021/08/08 10:19:35;;;;;;;8.87;5.20;;;;;;;18.56;69.73;100744.59;3576126;40;20250;-80
2021/08/08 10:22:00;;;;;;;8.43;5.07;;;;;;;18.60;68.89;100747.13;3576035;40;20226;-81
2021/08/08 10:24:25;;;;;;;9.50;4.90;;;;;;;18.68;70.41;100754.78;3578575;40;20495;-80
2021/08/08 10:26:51;;;;;;;10.60;4.53;;;;;;;18.80;69.89;100747.66;3570368;40;20242;-80
2021/08/08 10:29:19;;;;;;;8.63;5.13;;;;;;;18.83;69.09;100752.81;3569693;40;20254;-80
2021/08/08 10:31:49;;;;;;;8.27;5.10;;;;;;;18.92;69.71;100741.41;3569170;40;20267;-81
2021/08/08 10:34:14;;;;;;;11.70;5.07;;;;;;;19.29;67.98;100750.34;3566337;40;20231;-80
2021/08/08 10:36:40;;;;;;;11.77;4.70;;;;;;;19.44;66.32;100748.31;3565031;40;20235;-80
2021/08/08 10:39:10;;;;;;;12.40;5.23;;;;;;;19.55;65.59;100751.59;3571565;40;20315;-80
2021/08/08 10:41:37;;;;;;;8.63;4.50;;;;;;;19.67;66.34;100740.97;3562856;40;20641;-80
2021/08/08 10:44:09;;;;;;;8.50;4.90;;;;;;;19.81;65.14;100740.72;3562288;40;20306;-79
2021/08/08 10:46:48;;;;;;;8.77;4.53;;;;;;;19.72;64.75;100744.31;3563587;40;20235;-79
2021/08/08 10:49:13;;;;;;;8.30;4.70;;;;;;;19.67;64.32;100745.31;3562227;40;20265;-79
2021/08/08 10:51:39;;;;;;;7.57;4.53;;;;;;;19.71;65.26;100758.22;3569413;40;20222;-79
2021/08/08 10:54:07;;;;;;;8.13;4.50;;;;;;;19.62;65.56;100749.75;3572682;40;20243;-79
2021/08/08 10:56:39;;;;;;;8.20;4.60;;;;;;;19.88;64.65;100750.09;3573022;40;20214;-80
2021/08/08 10:59:31;;;;;;;8.50;4.80;;;;;;;20.03;65.31;100747.19;3573377;40;20266;-79
2021/08/08 11:02:08;;;;;;;9.20;4.23;;;;;;;20.24;64.88;100757.16;3572761;40;20522;-79
2021/08/08 11:04:33;;;;;;;10.60;4.40;;;;;;;20.38;63.90;100757.72;3561908;40;20249;-79
2021/08/08 11:06:59;;;;;;;9.07;4.20;;;;;;;20.47;63.11;100757.53;3572478;40;20238;-79
2021/08/08 11:09:24;;;;;;;11.90;4.53;;;;;;;20.57;62.76;100769.44;3572457;40;20537;-79
2021/08/08 11:11:56;;;;;;;9.67;4.50;;;;;;;20.56;63.03;100773.81;3573714;40;20227;-80
2021/08/08 11:14:21;;;;;;;9.17;3.87;;;;;;;20.48;64.08;100767.91;3573074;40;20227;-79
2021/08/08 11:16:58;;;;;;;7.50;4.27;;;;;;;20.37;62.09;100780.31;3572124;40;20230;-79
2021/08/08 11:19:33;;;;;;;10.53;4.63;;;;;;;20.48;63.58;100777.44;3572865;40;20238;-80